.
WxDataArchive / Data Records for 2014-10-09
2014-10-08 October 2014 2014-10-10

Data Records for Thursday, 09 October 2014

Time	Temp	Chill	HIndex	Humid	Dewpt	 Wind 	HiWind	WindDir	Rain 	Barom
-----	----	-----	------	-----	-----	------	------	-------	-----	-----
00:00	47.4	47.4	47.4	65	36.2	0	0	---	0.00	30.008 
00:05	47.6	47.6	47.6	65	36.4	0	0	---	0.00	30.008 
00:10	47.6	47.6	47.6	64	36.0	0	0	---	0.00	30.008 
00:15	47.7	47.7	47.7	64	36.1	0	0	---	0.00	30.003 
00:20	47.7	47.7	47.7	64	36.1	0	0	---	0.00	30.003 
00:25	47.7	47.7	47.7	64	36.1	0	0	---	0.00	30.003 
00:30	47.6	47.6	47.6	63	35.6	0	0	---	0.00	29.999 
00:35	47.6	47.6	47.6	65	36.4	0	0	---	0.00	29.999 
00:40	47.6	47.6	47.6	64	36.0	0	0	---	0.00	29.999 
00:45	47.6	47.6	47.6	65	36.4	0	0	---	0.00	29.997 
00:50	47.6	47.6	47.6	64	36.0	0	0	---	0.00	29.997 
00:55	47.7	47.7	47.7	64	36.1	0	0	---	0.00	29.997 
01:00	48.0	48.0	48.0	64	36.4	0	0	---	0.00	29.995 
01:05	48.0	48.0	48.0	64	36.4	0	0	---	0.00	29.995 
01:10	48.0	48.0	48.0	64	36.4	0	0	---	0.00	29.995 
01:15	48.0	48.0	48.0	64	36.4	0	0	---	0.00	29.990 
01:20	48.0	48.0	48.0	63	36.0	0	0	---	0.00	29.990 
01:25	48.2	48.2	48.2	63	36.2	0	0	---	0.00	29.990 
01:30	48.5	48.5	48.5	64	36.9	0	0	---	0.00	29.993 
01:35	48.6	48.6	48.6	63	36.6	0	0	---	0.00	29.993 
01:40	48.9	48.9	48.9	62	36.5	0	1	270	0.00	29.993 
01:45	49.2	49.2	49.2	62	36.7	0	0	---	0.00	29.988 
01:50	49.5	49.5	49.5	62	37.0	0	0	---	0.00	29.988 
01:55	49.6	49.6	49.6	62	37.1	0	1	270	0.00	29.988 
02:00	49.8	49.8	49.8	61	36.9	0	1	270	0.00	29.987 
02:05	50.1	50.1	50.1	61	37.2	0	0	---	0.00	29.987 
02:10	50.2	50.2	50.2	60	36.9	0	1	270	0.00	29.987 
02:15	50.4	50.4	50.4	60	37.0	0	1	270	0.00	29.987 
02:20	50.4	50.4	50.4	59	36.6	0	1	270	0.00	29.987 
02:25	50.4	50.4	50.4	59	36.6	0	0	---	0.00	29.987 
02:30	50.4	50.4	50.4	60	37.0	0	0	---	0.00	29.998 
02:35	50.4	50.4	50.4	60	37.0	0	0	---	0.00	29.998 
02:40	50.4	50.4	50.4	61	37.5	0	0	---	0.00	29.998 
02:45	50.2	50.2	50.2	60	36.9	0	0	---	0.00	29.998 
02:50	50.1	50.1	50.1	60	36.8	0	0	---	0.00	29.998 
02:55	50.1	50.1	50.1	60	36.8	0	1	270	0.00	29.998 
03:00	50.1	50.1	50.1	61	37.2	0	1	270	0.00	29.999 
03:05	50.1	50.1	50.1	61	37.2	0	0	---	0.00	29.999 
03:10	49.9	49.9	49.9	61	37.0	0	0	---	0.00	29.999 
03:15	49.9	49.9	49.9	61	37.0	0	0	---	0.00	29.995 
03:20	49.9	49.9	49.9	61	37.0	0	1	270	0.00	29.995 
03:25	49.9	49.9	49.9	61	37.0	0	1	270	0.00	29.995 
03:30	49.9	49.9	49.9	61	37.0	0	1	270	0.00	29.995 
03:35	50.1	50.1	50.1	61	37.2	0	0	---	0.00	29.995 
03:40	50.1	50.1	50.1	61	37.2	0	0	---	0.00	29.995 
03:45	50.2	50.2	50.2	61	37.3	0	1	270	0.00	29.993 
03:50	50.5	50.5	50.5	60	37.1	0	3	270	0.00	29.993 
03:55	50.8	50.8	50.8	61	37.8	0	1	270	0.00	29.993 
04:00	50.5	50.5	50.5	61	37.6	0	1	270	0.00	30.003 
04:05	50.2	50.2	50.2	62	37.7	0	1	270	0.00	30.003 
04:10	49.9	49.9	49.9	62	37.4	0	1	270	0.00	30.003 
04:15	49.6	49.6	49.6	63	37.5	0	1	270	0.00	30.014 
04:20	49.5	49.5	49.5	64	37.8	0	1	270	0.00	30.014 
04:25	49.2	49.2	49.2	64	37.5	0	1	270	0.00	30.014 
04:30	49.2	49.2	49.2	65	37.9	0	0	---	0.00	30.010 
04:35	49.1	49.1	49.1	66	38.2	0	0	---	0.00	30.010 
04:40	48.9	48.9	48.9	67	38.4	0	0	---	0.00	30.010 
04:45	48.8	48.8	48.8	67	38.3	0	0	---	0.00	30.013 
04:50	48.6	48.6	48.6	68	38.5	0	0	---	0.00	30.013 
04:55	48.5	48.5	48.5	68	38.4	0	0	---	0.00	30.013 
05:00	48.5	48.5	48.5	69	38.8	0	0	---	0.00	30.013 
05:05	48.5	48.5	48.5	69	38.8	0	0	---	0.00	30.013 
05:10	48.3	48.3	48.3	69	38.6	0	0	---	0.00	30.013 
05:15	48.3	48.3	48.3	69	38.6	0	0	---	0.00	30.016 
05:20	48.3	48.3	48.3	69	38.6	0	0	---	0.00	30.016 
05:25	48.3	48.3	48.3	70	39.0	0	0	---	0.00	30.016 
05:30	48.2	48.2	48.2	70	38.9	0	0	---	0.00	30.016 
05:35	48.2	48.2	48.2	71	39.2	0	0	---	0.00	30.016 
05:40	48.3	48.3	48.3	71	39.3	0	0	---	0.00	30.016 
05:45	48.3	48.3	48.3	71	39.3	0	0	---	0.00	30.016 
05:50	48.3	48.3	48.3	71	39.3	0	0	---	0.00	30.016 
05:55	48.3	48.3	48.3	72	39.7	0	0	---	0.00	30.016 
06:00	48.3	48.3	48.3	72	39.7	0	0	---	0.00	30.020 
06:05	48.3	48.3	48.3	72	39.7	0	0	---	0.00	30.020 
06:10	48.3	48.3	48.3	72	39.7	0	0	---	0.00	30.020 
06:15	48.3	48.3	48.3	73	40.1	0	0	---	0.00	30.016 
06:20	48.5	48.5	48.5	72	39.9	0	0	---	0.00	30.016 
06:25	48.6	48.6	48.6	71	39.6	0	0	---	0.00	30.016 
06:30	49.1	49.1	49.1	70	39.7	0	1	270	0.00	30.018 
06:35	49.4	49.4	49.4	69	39.7	0	0	---	0.00	30.018 
06:40	49.4	49.4	49.4	69	39.7	0	0	---	0.00	30.018 
06:45	49.2	49.2	49.2	69	39.5	0	0	---	0.00	30.015 
06:50	49.2	49.2	49.2	70	39.8	0	0	---	0.00	30.015 
06:55	49.1	49.1	49.1	70	39.7	0	0	---	0.00	30.015 
07:00	48.9	48.9	48.9	70	39.6	0	1	270	0.00	30.017 
07:05	48.9	48.9	48.9	70	39.6	0	0	---	0.00	30.017 
07:10	48.9	48.9	48.9	70	39.6	0	0	---	0.00	30.017 
07:15	48.9	48.9	48.9	71	39.9	0	0	---	0.00	30.023 
07:20	48.8	48.8	48.8	72	40.2	0	0	---	0.00	30.023 
07:25	48.6	48.6	48.6	72	40.0	0	0	---	0.00	30.023 
07:30	48.3	48.3	48.3	73	40.1	0	0	---	0.00	30.023 
07:35	48.2	48.2	48.2	73	40.0	0	0	---	0.00	30.023 
07:40	48.0	48.0	48.0	74	40.1	0	0	---	0.00	30.023 
07:45	47.9	47.9	47.9	75	40.4	0	0	---	0.00	30.029 
07:50	47.9	47.9	47.9	75	40.4	0	0	---	0.00	30.029 
07:55	48.0	48.0	48.0	75	40.5	0	0	---	0.00	30.029 
08:00	48.2	48.2	48.2	75	40.7	0	0	---	0.00	30.036 
08:05	48.2	48.2	48.2	75	40.7	0	0	---	0.00	30.036 
08:10	48.2	48.2	48.2	75	40.7	0	0	---	0.00	30.036 
08:15	48.2	48.2	48.2	76	41.0	0	0	---	0.00	30.038 
08:20	48.2	48.2	48.2	76	41.0	0	0	---	0.00	30.038 
08:25	48.2	48.2	48.2	77	41.3	0	0	---	0.00	30.038 
08:30	48.3	48.3	48.3	77	41.4	0	0	---	0.00	30.041 
08:35	48.3	48.3	48.3	77	41.4	0	0	---	0.00	30.041 
08:40	48.3	48.3	48.3	77	41.4	0	0	---	0.00	30.041 
08:45	48.5	48.5	48.5	77	41.6	0	0	---	0.00	30.058 
08:50	48.8	48.8	48.8	76	41.6	0	0	---	0.00	30.058 
08:55	49.1	49.1	49.1	76	41.9	0	0	---	0.00	30.058 
09:00	49.2	49.2	49.2	76	42.0	0	0	---	0.00	30.059 
09:05	49.4	49.4	49.4	75	41.8	0	0	---	0.00	30.059 
09:10	49.6	49.6	49.6	75	42.0	0	0	---	0.00	30.059 
09:15	49.8	49.8	49.8	74	41.9	0	1	270	0.00	30.066 
09:20	49.9	49.9	49.9	73	41.6	0	0	---	0.00	30.066 
09:25	50.2	50.2	50.2	73	41.9	0	1	270	0.00	30.066 
09:30	50.4	50.4	50.4	73	42.1	0	0	---	0.00	30.071 
09:35	50.7	50.7	50.7	72	42.0	0	1	270	0.00	30.071 
09:40	51.0	51.0	51.0	71	41.9	0	1	270	0.00	30.071 
09:45	51.1	51.1	51.1	71	42.0	0	1	270	0.00	30.079 
09:50	51.3	51.3	51.3	71	42.2	0	1	270	0.00	30.079 
09:55	51.4	51.4	51.4	70	41.9	0	1	270	0.00	30.079 
10:00	51.6	51.6	51.6	70	42.1	0	1	270	0.00	30.087 
10:05	51.6	51.6	51.6	71	42.5	0	0	---	0.00	30.087 
10:10	51.6	51.6	51.6	70	42.1	0	1	270	0.00	30.087 
10:15	51.6	51.6	51.6	71	42.5	0	1	270	0.00	30.084 
10:20	51.6	51.6	51.6	71	42.5	0	0	---	0.00	30.084 
10:25	51.7	51.7	51.7	72	43.0	0	1	270	0.00	30.084 
10:30	51.7	51.7	51.7	72	43.0	0	1	270	0.00	30.100 
10:35	51.7	51.7	51.7	71	42.6	0	1	270	0.00	30.100 
10:40	51.7	51.7	51.7	71	42.6	0	1	270	0.00	30.100 
10:45	51.9	51.9	51.9	71	42.8	0	1	270	0.00	30.103 
10:50	51.9	51.9	51.9	71	42.8	0	1	270	0.00	30.103 
10:55	52.0	52.0	52.0	71	42.9	0	1	270	0.00	30.103 
11:00	52.0	52.0	52.0	71	42.9	0	1	270	0.00	30.105 
11:05	52.0	52.0	52.0	72	43.3	0	1	270	0.00	30.105 
11:10	52.0	52.0	52.0	71	42.9	0	1	270	0.00	30.105 
11:15	52.0	52.0	52.0	72	43.3	0	1	270	0.00	30.103 
11:20	52.0	52.0	52.0	73	43.6	0	0	---	0.00	30.103 
11:25	52.2	52.2	52.2	73	43.8	0	0	---	0.00	30.103 
11:30	52.3	52.3	52.3	73	43.9	0	1	270	0.00	30.103 
11:35	52.3	52.3	52.3	72	43.5	0	1	270	0.00	30.103 
11:40	52.5	52.5	52.5	72	43.7	0	1	270	0.00	30.103 
11:45	52.8	52.8	52.8	71	43.7	0	1	270	0.00	30.102 
11:50	52.9	52.9	52.9	72	44.1	0	0	---	0.00	30.102 
11:55	53.2	53.2	53.2	72	44.4	0	0	---	0.00	30.102 
12:00	53.3	53.3	53.3	72	44.5	0	1	270	0.00	30.106 
12:05	53.3	53.3	53.3	71	44.1	0	0	---	0.00	30.106 
12:10	53.5	53.5	53.5	70	44.0	0	1	270	0.00	30.106 
12:15	53.5	53.5	53.5	70	44.0	0	1	270	0.00	30.103 
12:20	53.6	53.6	53.6	70	44.1	0	0	---	0.00	30.103 
12:25	53.6	53.6	53.6	70	44.1	0	0	---	0.00	30.103 
12:30	53.8	53.8	53.8	70	44.2	0	1	270	0.00	30.103 
12:35	53.9	53.9	53.9	70	44.3	0	1	270	0.00	30.103 
12:40	54.2	54.2	54.2	69	44.3	0	1	270	0.00	30.103 
12:45	54.4	54.4	54.4	68	44.1	0	2	270	0.00	30.098 
12:50	54.7	54.7	54.7	66	43.6	0	2	270	0.00	30.098 
12:55	54.7	54.7	54.7	65	43.2	0	1	270	0.00	30.098 
13:00	54.8	54.8	54.8	66	43.7	0	1	270	0.00	30.097 
13:05	54.8	54.8	54.8	66	43.7	0	2	270	0.00	30.097 
13:10	54.7	54.7	54.7	65	43.2	0	3	270	0.00	30.097 
13:15	54.8	54.8	54.8	65	43.3	0	3	270	0.00	30.091 
13:20	54.8	54.8	54.8	65	43.3	0	2	270	0.00	30.091 
13:25	55.0	55.0	55.0	66	43.9	0	1	270	0.00	30.091 
13:30	55.1	55.1	55.1	64	43.1	0	2	270	0.00	30.082 
13:35	55.1	55.1	55.1	64	43.1	0	3	270	0.00	30.082 
13:40	55.3	55.3	55.3	65	43.7	0	2	270	0.00	30.082 
13:45	55.4	55.4	55.4	65	43.8	0	1	270	0.00	30.079 
13:50	55.7	55.7	55.7	64	43.7	1	2	270	0.00	30.079 
13:55	56.0	56.0	56.0	64	44.0	0	2	270	0.00	30.079 
14:00	56.5	56.5	56.5	64	44.5	0	2	270	0.00	30.070 
14:05	56.3	56.3	56.3	62	43.4	1	2	270	0.00	30.070 
14:10	56.3	56.3	56.3	61	43.0	1	4	338	0.00	30.070 
14:15	56.6	56.6	56.6	62	43.7	1	3	292	0.00	30.071 
14:20	56.7	56.7	56.7	63	44.2	0	1	292	0.00	30.071 
14:25	57.0	57.0	57.0	60	43.3	0	3	292	0.00	30.071 
14:30	57.2	57.2	57.2	61	43.9	0	2	292	0.00	30.064 
14:35	57.5	57.5	57.5	60	43.7	0	2	292	0.00	30.064 
14:40	58.0	58.0	58.0	59	43.8	0	3	292	0.00	30.064 
14:45	58.4	58.4	58.4	59	44.1	1	4	292	0.00	30.060 
14:50	58.9	58.9	58.9	58	44.1	0	2	292	0.00	30.060 
14:55	59.0	59.0	59.0	55	42.9	1	3	292	0.00	30.060 
15:00	59.0	59.0	59.0	56	43.3	1	3	292	0.00	30.059 
15:05	59.2	59.2	59.2	55	43.0	0	2	292	0.00	30.059 
15:10	59.3	59.3	59.3	55	43.1	0	1	292	0.00	30.059 
15:15	59.5	59.5	59.5	54	42.8	0	2	292	0.00	30.054 
15:20	59.6	59.6	59.6	55	43.4	0	2	292	0.00	30.054 
15:25	59.5	59.5	59.5	52	41.9	0	3	292	0.00	30.054 
15:30	59.6	59.6	59.6	53	42.4	0	1	292	0.00	30.053 
15:35	59.8	59.8	59.8	52	42.1	1	4	315	0.00	30.053 
15:40	59.9	59.9	59.9	53	42.7	0	1	315	0.00	30.053 
15:45	60.4	60.4	60.4	54	43.7	0	2	315	0.00	30.049 
15:50	60.7	60.7	60.7	52	43.0	0	1	315	0.00	30.049 
15:55	61.0	61.0	61.0	50	42.2	0	3	315	0.00	30.049 
16:00	60.9	60.9	60.9	50	42.1	0	2	315	0.00	30.048 
16:05	60.5	60.5	60.5	51	42.3	0	3	315	0.00	30.048 
16:10	60.5	60.5	60.5	51	42.3	0	1	315	0.00	30.048 
16:15	60.5	60.5	60.5	52	42.8	0	3	315	0.00	30.051 
16:20	60.5	60.5	60.5	50	41.8	0	2	315	0.00	30.051 
16:25	60.4	60.4	60.4	50	41.7	1	3	315	0.00	30.051 
16:30	60.2	60.2	60.2	51	42.0	0	1	315	0.00	30.048 
16:35	60.2	60.2	60.2	52	42.5	0	1	315	0.00	30.048 
16:40	60.2	60.2	60.2	52	42.5	0	1	315	0.00	30.048 
16:45	60.2	60.2	60.2	51	42.0	0	1	270	0.00	30.047 
16:50	60.2	60.2	60.2	51	42.0	0	1	270	0.00	30.047 
16:55	60.4	60.4	60.4	53	43.2	0	1	270	0.00	30.047 
17:00	60.4	60.4	60.4	51	42.2	0	1	270	0.00	30.043 
17:05	60.2	60.2	60.2	53	43.0	0	1	270	0.00	30.043 
17:10	60.2	60.2	60.2	50	41.5	0	1	270	0.00	30.043 
17:15	60.2	60.2	60.2	50	41.5	0	1	270	0.00	30.036 
17:20	60.2	60.2	60.2	51	42.0	0	1	270	0.00	30.036 
17:25	60.2	60.2	60.2	52	42.5	0	0	---	0.00	30.036 
17:30	60.1	60.1	60.1	50	41.4	0	1	270	0.00	30.040 
17:35	60.2	60.2	60.2	52	42.5	0	0	---	0.00	30.040 
17:40	60.2	60.2	60.2	53	43.0	0	1	270	0.00	30.040 
17:45	60.2	60.2	60.2	51	42.0	0	1	270	0.00	30.046 
17:50	60.1	60.1	60.1	52	42.4	0	3	270	0.00	30.046 
17:55	60.1	60.1	60.1	51	41.9	0	1	270	0.00	30.046 
18:00	60.1	60.1	60.1	50	41.4	0	1	270	0.00	30.047 
18:05	60.2	60.2	60.2	51	42.0	0	1	270	0.00	30.047 
18:10	60.1	60.1	60.1	53	42.9	0	1	270	0.00	30.047 
18:15	59.9	59.9	59.9	52	42.2	0	1	270	0.00	30.047 
18:20	59.6	59.6	59.6	53	42.4	0	0	---	0.00	30.047 
18:25	59.5	59.5	59.5	53	42.4	0	1	270	0.00	30.047 
18:30	59.2	59.2	59.2	53	42.1	0	1	270	0.00	30.046 
18:35	59.0	59.0	59.0	55	42.9	0	0	---	0.00	30.046 
18:40	58.7	58.7	58.7	56	43.0	0	0	---	0.00	30.046 
18:45	58.4	58.4	58.4	57	43.2	0	0	---	0.00	30.047 
18:50	58.0	58.0	58.0	57	42.9	0	0	---	0.00	30.047 
18:55	57.5	57.5	57.5	58	42.8	0	0	---	0.00	30.047 
19:00	57.0	57.0	57.0	59	42.8	0	0	---	0.00	30.049 
19:05	56.6	56.6	56.6	60	42.9	0	0	---	0.00	30.049 
19:10	56.2	56.2	56.2	61	42.9	0	0	---	0.00	30.049 
19:15	55.7	55.7	55.7	62	42.9	0	0	---	0.00	30.055 
19:20	55.4	55.4	55.4	63	43.0	0	0	---	0.00	30.055 
19:25	55.0	55.0	55.0	64	43.0	0	0	---	0.00	30.055 
19:30	54.7	54.7	54.7	65	43.2	0	0	---	0.00	30.058 
19:35	54.2	54.2	54.2	66	43.1	0	0	---	0.00	30.058 
19:40	53.6	53.6	53.6	69	43.7	0	0	---	0.00	30.058 
19:45	53.2	53.2	53.2	70	43.7	0	0	---	0.00	30.058 
19:50	52.9	52.9	52.9	72	44.1	0	0	---	0.00	30.058 
19:55	52.6	52.6	52.6	73	44.2	0	0	---	0.00	30.058 
20:00	52.3	52.3	52.3	73	43.9	0	0	---	0.00	30.067 
20:05	51.9	51.9	51.9	74	43.9	0	0	---	0.00	30.067 
20:10	51.6	51.6	51.6	72	42.9	0	0	---	0.00	30.067 
20:15	52.0	52.0	52.0	65	40.6	0	1	270	0.00	30.069 
20:20	52.6	52.6	52.6	61	39.5	0	0	---	0.00	30.069 
20:25	53.1	53.1	53.1	58	38.7	0	0	---	0.00	30.069 
20:30	53.3	53.3	53.3	56	38.0	0	1	270	0.00	30.070 
20:35	53.5	53.5	53.5	55	37.7	0	1	270	0.00	30.070 
20:40	53.3	53.3	53.3	55	37.5	0	1	270	0.00	30.070 
20:45	53.2	53.2	53.2	55	37.5	0	1	270	0.00	30.073 
20:50	53.1	53.1	53.1	55	37.4	0	1	270	0.00	30.073 
20:55	52.9	52.9	52.9	55	37.2	0	0	---	0.00	30.073 
21:00	52.5	52.5	52.5	56	37.3	0	1	270	0.00	30.078 
21:05	52.2	52.2	52.2	56	37.0	0	0	---	0.00	30.078 
21:10	51.9	51.9	51.9	57	37.1	0	0	---	0.00	30.078 
21:15	51.6	51.6	51.6	57	36.9	0	0	---	0.00	30.080 
21:20	51.4	51.4	51.4	58	37.1	0	0	---	0.00	30.080 
21:25	51.1	51.1	51.1	58	36.8	0	0	---	0.00	30.080 
21:30	50.8	50.8	50.8	58	36.6	0	0	---	0.00	30.082 
21:35	50.7	50.7	50.7	59	36.9	0	0	---	0.00	30.082 
21:40	50.4	50.4	50.4	59	36.6	0	0	---	0.00	30.082 
21:45	50.1	50.1	50.1	60	36.8	0	0	---	0.00	30.083 
21:50	49.8	49.8	49.8	60	36.5	0	0	---	0.00	30.083 
21:55	49.6	49.6	49.6	61	36.7	0	0	---	0.00	30.083 
22:00	49.4	49.4	49.4	61	36.5	0	0	---	0.00	30.085 
22:05	49.2	49.2	49.2	62	36.7	0	0	---	0.00	30.085 
22:10	49.1	49.1	49.1	62	36.6	0	1	270	0.00	30.085 
22:15	48.9	48.9	48.9	62	36.5	0	0	---	0.00	30.087 
22:20	48.8	48.8	48.8	62	36.4	0	0	---	0.00	30.087 
22:25	48.6	48.6	48.6	62	36.2	0	0	---	0.00	30.087 
22:30	48.5	48.5	48.5	63	36.5	0	0	---	0.00	30.093 
22:35	48.2	48.2	48.2	64	36.6	0	0	---	0.00	30.093 
22:40	47.7	47.7	47.7	65	36.5	0	0	---	0.00	30.093 
22:45	47.3	47.3	47.3	67	36.9	0	0	---	0.00	30.099 
22:50	47.0	47.0	47.0	68	37.0	0	0	---	0.00	30.099 
22:55	46.5	46.5	46.5	69	36.9	0	0	---	0.00	30.099 
23:00	46.1	46.1	46.1	71	37.2	0	0	---	0.00	30.099 
23:05	45.8	45.8	45.8	73	37.6	0	0	---	0.00	30.099 
23:10	45.4	45.4	45.4	73	37.3	0	0	---	0.00	30.099 
23:15	45.2	45.2	45.2	72	36.7	0	0	---	0.00	30.099 
23:20	45.2	45.2	45.2	72	36.7	0	0	---	0.00	30.099 
23:25	45.1	45.1	45.1	74	37.3	0	0	---	0.00	30.099 
23:30	44.6	44.6	44.6	75	37.2	0	0	---	0.00	30.103 
23:35	44.3	44.3	44.3	76	37.2	0	0	---	0.00	30.103 
23:40	43.9	43.9	43.9	77	37.2	0	0	---	0.00	30.103 
23:45	43.6	43.6	43.6	77	36.9	0	0	---	0.00	30.105 
23:50	43.3	43.3	43.3	78	36.9	0	0	---	0.00	30.105 
23:55	43.1	43.1	43.1	79	37.0	0	0	---	0.00	30.105 

CoCoRaHS
IN-AL-39
A2 Web Hosting
Creative Commons License
GoDaddy
search engine by freefind advanced

loaded 2018-11-19 10:20:33 • last modified 2010-11-18 10:43:29
Privacy PolicyDisclaimer
• wx.awcolley.com is powered by PmWiki v.2002016 •
• all content (unless otherwise noted) © 2018 A W Colley